Timeline UpdatesTrip UpdatesNews PostsPvt PostsTravel TipsAdmin PostsConv PostsFollowed PostsChat RequestsBlog PostsPNR Posts

Disclaimer
Search
 
 
Thu Apr 17, 2014 04:23:49 ISTHomeTrainsΣChainsAtlasPNRForumGalleryNewsFAQTripsMembersLoginFeedback
No Recent News for this Train
Other Trains in the News **new
Latest...
.
Sat Nov 30, 2013 (12:16PM)
⇐ Return Journey: Train# 13352-Slip

18189/Tatanagar- Alappuzha Alleppey Express-Slip

Mar 11 2014 (6:26PM)
Change Departure Station:
Change Arrival Station:
Post a Train Travel TipPost a Train Travel Tip **new
Post a Comment/Question/Picture/VideoPost a Comment/Question/Picture/Video
Pantry/Catering
✓ Pantry Car Avbl
✓ Catering Avbl
.pantry car available from rourkela to allappuzha because pantry car...
Read more...
is available in dhanbad portion
Loco/Rake Reversals
MAS/Chennai Central (12); VSKP/Visakhapatnam Junction (8); SRR/Shoranur Junction (7);
RSA - Rake Sharing
Rake/Coach Composition
LOCO-SLR*-GS*-S1*-S2*-S3*-S4*-S5*-S6*-S7*-S8*-PC*-A1*-B1*-B2-ST1-ST2-ST3-ST4-ST5-GS-SLR; *= Dhanbad portion attached at ROU.
Loco
Loco In-Charge:- TATA - ROU :- TATA WAM-4/ASN WAM-4 ROU - VSKP...
Read more...
:- VSKP/R/BNDM WDM-3A VSKP - MAS :- AJJ WAM-4/BZA WAM-4 - RPM WAP-4/1 MAS - ALLP :- RPM WAP-1/WAP-4, AJJ WAM-4/WAP-4
News    PNR    Forum    Time-Table    Availability    Fare Chart    Map    Arr/Dep History    Trips    Gallery    ΣChains    X/O    Timeline    
Travel Time: 0h 35m    0 halts    Distance: 13 km    Avg Speed: 22 km/hr
Type: Mail/Express
Zone: SER/South Eastern
Departs @ 19:45 (Avg 27m late)
Platform# ???
SMTWTFS
Mararikkulam/MAKM 
Arrives @ 20:20 (Avg 9m late)
Platform# 3
SMTWTFS
Alappuzha/ALLP 

0 halts. 2 intermediate Stations between Mararikkulam and Alappuzha

Show ALL intermediate Stations  Show Old Time-Table

#CodeStation NameX/OArrivesAvgDepartsAvgHaltPFDay#KmSpeedElevZoneAddress
1TATATatanagar Junction (5)  -15:45+011-2349.865164mSER91-657-2423026, Jharkhand
2SINISini JunctionX  16:10+916:11+101m--1-2322.865182mSERNational Highway 33, Jharkhand
3RKSNRajkharsawan Junction  16:25+1116:26+131m--1-2307.650189mSERWest Singhbhum district, Jharkhand
4CKPChakradharpur (3)  16:50+516:55+65m11-2287.597235mSERChakradharpur (West Singhbhum), Jharkhand
5GOLGoilkeraX  17:16+1317:17+151m--1-2253.757333mSERGoilkera, Jharkhand
6MOUManoharpur  17:46+1017:47+111m--1-2226.268228mSERManoharpur, Jharkhand
7JRAJaraikela17:57+917:58+111m--1-2214.982215mSERJaraikela Station, Jharkhand
8BNDMBondamunda (3)O  18:14+1218:15+121m--1-2193.020213mSERRourkela, Odisha
9ROURourkela Junction (5)X  18:35+1219:00+3525m11-2186.564198mSERRourkela, Odisha
10GPRaj Gangpur (3)  19:28+4019:29+411m--1-2156.769237mSERRaj Ganpur, Odisha
11BMBBamra (3)X  19:59+4020:00+401m--1-2122.055259mSERBamra PH : 06642-229268, Odisha
12JSGJharsuguda Junction (5)  20:40+2120:50+1910m11-2085.563236mSERJharsuguda, Odisha
13RGLRengali  21:15+4521:17+452m--1-2059.169208mECoRState Highway 10, Odisha
14SBPDSambalpur Road  21:35+4621:37+462m--1-2038.411161mECoRSambalpur, Odisha
15SBPSambalpur Junction (3)X  21:45+4621:55+4810m11-2036.964159mECoRSambalpur, Odisha
16ATSAttabira  22:18+5322:20+552m--1-2012.477164mECoRBargarh, Odisha
17BRGABargarh RoadX  22:34+5822:39+1:035m--1-1994.364185mECoRBargarh, Odisha
18BRPLBarpaliX  22:57+1:0222:59+1:092m--1-1975.167178mECoRBarpali, Odisha
19BLGRBalangir  23:50+1:1423:55+1:225m--1-1918.147210mECoRBolangir, Odisha
20BUDMBadmal  00:50+1:1100:52+1:122m--2-1874.723209mECoRDumerbahal Rd, Odisha
21TIGTitlagarh JunctionX  01:45+4301:55+4510m--2-1854.756212mECoRTitlagarh, Odisha
22KSNGKesinga (1)X  02:10+4602:12+472m12-1840.865183mECoRKesinga, Odisha
23RPRDRupra Road  02:27+4902:29+492m--2-1824.644233mECoRKalahandi, Odisha
24NRLRNorla Road  02:38+4802:40+492m--2-1817.960247mECoRKalahandi, Odisha
25AMBAmbodala  03:05+4803:07+492m--2-1792.939374mECoRState Highway 6, Odisha
26MNGDMunigudaX  03:45+3603:47+382m--2-1767.941335mECoRMuniguda, Odisha
27THVTherubali  04:40+2404:42+262m--2-1732.031270mECoRRayagada, Odisha
28SPRDSingapuram Road (2)X  05:00+2205:02+242m--2-1722.615248mECoRJaykaypur, Odisha
29RGDARayagada (3)  05:40+1205:55+1415m--2-1713.373229mECoRRayagada ph.no 06856-222407, Odisha
30PVPTParvatipuram TownX  06:32+1606:34+162m--2-1668.025121mECoRParvatipuram, Andhra Pradesh
31PVPParvatipuram (3)X  06:38+1606:40+162m--2-1666.472122mECoRParvatipuram, Andhra Pradesh
32VBLBobbili Junction (2)X  07:00+1507:03+153m22-1642.545137mECoRBobbili, Andhra Pradesh
33VZMVizianagaram Junction (5)  08:15+408:20+105m--2-1588.27563mECoRVizianagaram ph.no 08922-225510, Andhra Pradesh
34KTVKottavalasa Junction (5)X  08:48+2108:50+242m--2-1553.34058mECoRVizianagaram District, Andhra Pradesh
35SCMSimhachalam (2)  09:17+409:19+52m--2-1535.21127mECoRVisakhapatnam, Andhra Pradesh
36VSKPVisakhapatnam Junction (8)X10:05+810:25+1120m42-1527.13311mECoRVishakhapatnam 530001, Andhra Pradesh
37DVDDuvvada (4)X  10:55+1210:57+122m--2-1510.77446mECoRVishakhapatnam District, Andhra Pradesh
38AKPAnakapalle (3)  11:10+2011:11+221m--2-1494.87130mSCRAnakapalle ph.no . 08924-221698, Andhra Pradesh
39YLMElamanchili (2)X  11:31+2511:32+291m--2-1471.07123mSCRVisakhapatnam District, Andhra Pradesh
40NRPNarsipatnam Road (2)  11:47+3211:48+351m--2-1453.38418mSCRVisakhapatnam District, Andhra Pradesh
41TUNITuni (2)X  12:04+4512:05+461m12-1431.07124mSCRTuni ph.no. 08854-252172, Andhra Pradesh
42ANVAnnavaram (3)  12:19+4812:20+501m12-1414.37627mSCREast Godavari District, Andhra Pradesh
43GLPGollaproluX  12:35+5312:36+541m--2-1395.24919mSCRGollaprollu, Andhra Pradesh
44PAPPithapuram (2)  12:43+5512:44+571m--2-1389.57222mSCREast Godavari District, Andhra Pradesh
45SLOSamalkot Junction (3)  12:54+1:0012:55+1:011m32-1377.58418mSCRKakinada ph.no.0884-2328824, Andhra Pradesh
46APTAnaparti (3)  13:14+1:0413:15+1:051m--2-1350.93821mSCREast Godavari District, Andhra Pradesh
47DWPDwarapudi (3)  13:21+1:0413:22+1:041m--2-1347.22420mSCREast Godavari District, Andhra Pradesh
48RJYRajahmundry (3)  14:11+4414:16+455m12-1327.33623mSCRRajahmundry ph.no. 0883-2420541, Andhra Pradesh
49KVRKovvur (3)  14:29+4914:30+491m--2-1319.46125mSCRWest Godavari, Andhra Pradesh
50NDDNidadavolu Junction (3)  14:44+5314:45+541m--2-1305.17120mSCRNidadavolu jtn ph.no. 08813-210325, Andhra Pradesh
51TDDTadepalligudem (3)X  15:02+5615:03+571m--2-1285.18718mSCRTadepalligudem, Andhra Pradesh
52EEEluru (3)  15:36+1:0315:37+1:041m32-1237.43319mSCREluru Ph.no. 08812 226401., Andhra Pradesh
53BZAVijayawada Junction (10)X  17:25+4117:45+4120m--2-1178.06924mSCRVijayawada 520001, Andhra Pradesh
54TELTenali Junction (5)  18:12+5518:13+581m32-1146.76616mSCRTel: 08644-227834, Andhra Pradesh
55NDONidubrolu (3)  18:33+1:0118:34+1:021m--2-1124.7659mSCRNidubrolu, Andhra Pradesh
56BPPBapatla (3)X  18:53+1:0518:54+1:061m--2-1104.17510mSCRBapatla, Andhra Pradesh
57CLXChirala (4)X  19:06+1:0919:07+1:111m--2-1089.1768mSCRChirala, Andhra Pradesh
58CJMChinnaganjam (3)X  19:23+1:1319:24+1:141m--2-1068.8369mSCRChinna Ganjam, Andhra Pradesh
59OGLOngole (3)X  20:12+5720:13+581m32-1039.77712mSCROngole ph.no . 08592-280202, Andhra Pradesh
60SKMSingarayakonda (3)X  20:35+1:0520:36+1:051m32-1011.59126mSCRSingarayakonda, Andhra Pradesh
61KVZKavali (4)X  21:01+1:0821:02+1:081m22-973.77621mSCRKavali, Andhra Pradesh
62BTTRBitragunta (2)X  21:15+1:0121:16+1:011m22-957.34515mSCRBitragunta, Andhra Pradesh
63NLRNellore (4)X  22:02+1622:03+151m32-923.01721mSCRNellore, Andhra Pradesh
64GDRGudur Junction (3)  00:18+600:20+62m23-884.56919mSCRGudur, Andhra Pradesh
65NYPNayadupeta (3)  00:44+1400:45+151m23-856.86833mSRNayudupeta, Andhra Pradesh
66SPESullurupeta (3)  01:09+1301:10+141m23-829.6459mSRSullurupeta, Andhra Pradesh
67MASChennai Central (12)03:00+903:25+1125m83-747.1579mSRChennai 600003, Tamil Nadu
68TRLTiruvallur (6)  04:09+1204:10+141m--3-705.46550mSRTiruvallur, Tamil Nadu
69AJJArakkonam Junction (8)  04:35+1304:40+125m--3-678.56891mSRArakkonam, Tamil Nadu
70MCNMukundarayapuram (2)  05:19+1005:20+121m--3-634.233198mSRSipcot Ranipet, Tamil Nadu
71KPDKatpadi Junction (5)  05:50+405:55+95m13-617.777213mSRVellore 632007. Phone No: 0416-2642628, Tamil Nadu
72GYMGudiyattam (3)  06:14+1306:15+141m33-593.291269mSRVellore, Tamil Nadu
73VNVaniyambadiXO  06:44+1806:45+191m--3-549.328357mSRVaniyambadi, Tamil Nadu
74JTJJolarpettai Junction (5)  07:18+607:20+92m--3-533.844405mSRJolarpettai jtn. Ph No.04179-241221, Tamil Nadu
75TPTTirupattur Junction (2)X  07:30+1307:32+142m--3-526.578392mSRTirupattur ph.no. 04179-220062, Tamil Nadu
76SLYSamalpatti  07:50+1707:52+182m--3-503.290381mSRSamalpatti ph.no. 04341-245601, Tamil Nadu
77BQIBommidiX  08:23+1908:25+202m--3-456.6740mSRBommidi ph.no. 04346-244441, Tamil Nadu
78SASalem Junction (6)X  09:00+2509:05+245m--3-413.653283mSRSalem, Tamil Nadu
79EDErode Junction (4)X  10:15+1510:25+2610m23-351.979175mSRErode ph.no: 0424-2256111, Tamil Nadu
80TUPTiruppur (2)  11:03+3111:05+312m13-302.048305mSRTiruppur. Ph:0421-2200450, Tamil Nadu
81CBECoimbatore Main Junction (6)  12:08+1912:10+212m--3-251.442411mSRCoimbatore 641001, Tamil Nadu
82PGTPalakkad Junction (4)  13:30+1413:35+175m--3-195.64184mSRPalghat Tel: 0491 2555231, Kerala
83SRRShoranur Junction (7)XO14:40+2615:25+3145m53-151.33226mSRShoranur ph.no 0466-2222913, Kerala
84TCRThrissur (4)  16:27+1816:30+193m13-118.4686mSRThrissur Tel: 0487 2423150, Kerala
85AWYAluva (3)XO  17:18+2317:20+232m--3-63.81812mSRPh: 0484-2624141, Kerala
86ERSErnakulam Junction (South) (6)  18:26+1018:30+154m13-44.4413mSRErnakulam 682016, Kerala
87TUVRTuravur (2)  19:04+2819:05+281m--3-20.9435mSRThuravoor, Kerala
88SRTLCherthala (3)  19:19+2719:20+281m23-11.01327mSRPh: 0478- 2812500, Kerala
89MAKM»Mararikkulam (1)»X  19:25+2819:45+2720m--30.02312mSRMararikulam, Kerala
90ALLP•Alappuzha (3)•  20:20+9-3313.1-8mSRPh:0477-2253965, Kerala
Scroll to Top
Scroll to Bottom